Time,TemperatureF,DewpointF,PressureIn,WindDirection,WindDirectionDegrees,WindSpeedMPH,WindSpeedGustMPH,Humidity,HourlyPrecipIn,Conditions,Clouds,dailyrainin,SoftwareType,DateUTC
2013-07-18 00:00:00,69.6,68.1,30.21,SE,135,0.0,0.0,95,0.00,,,36.38,VWS V14.01,2013-07-18 04:00:00,
2013-07-18 00:01:00,71.4,69.0,30.33,East,90,0.0,0.0,92,0.00,,,0.00,VWS V14.01,2013-07-18 04:01:00,
2013-07-18 00:06:00,71.2,68.5,30.33,South,180,0.0,0.9,91,0.00,,,0.00,VWS V14.01,2013-07-18 04:06:00,
2013-07-18 00:11:00,71.2,68.5,30.33,South,180,0.0,0.0,91,0.00,,,0.00,VWS V14.01,2013-07-18 04:11:00,
2013-07-18 00:16:00,71.1,68.3,30.33,ENE,68,0.0,0.0,91,0.00,,,0.00,VWS V14.01,2013-07-18 04:16:00,
2013-07-18 00:21:00,71.1,68.6,30.33,NE,45,0.0,0.0,92,0.00,,,0.00,VWS V14.01,2013-07-18 04:21:00,
2013-07-18 00:26:00,70.9,68.4,30.33,NE,45,0.0,0.0,92,0.00,,,0.00,VWS V14.01,2013-07-18 04:26:00,
2013-07-18 00:31:00,70.7,68.3,30.30,NE,45,0.0,0.0,92,0.00,,,0.00,VWS V14.01,2013-07-18 04:31:00,
2013-07-18 00:36:00,70.5,67.8,30.30,SE,135,0.0,0.0,91,0.00,,,0.00,VWS V14.01,2013-07-18 04:36:00,
2013-07-18 00:41:00,70.7,68.6,30.30,ESE,112,2.0,2.0,93,0.00,,,0.00,VWS V14.01,2013-07-18 04:41:00,
2013-07-18 00:46:00,70.7,68.9,30.30,ESE,112,1.1,2.0,94,0.00,,,0.00,VWS V14.01,2013-07-18 04:46:00,
2013-07-18 00:51:00,70.7,68.9,30.30,SSE,158,0.0,1.1,94,0.00,,,0.00,VWS V14.01,2013-07-18 04:51:00,
2013-07-18 00:56:00,70.5,68.7,30.30,South,180,0.0,0.0,94,0.00,,,0.00,VWS V14.01,2013-07-18 04:56:00,
2013-07-18 01:01:00,70.5,68.7,30.33,NNW,338,0.0,0.0,94,0.00,,,0.00,VWS V14.01,2013-07-18 05:01:00,
2013-07-18 01:06:00,70.5,68.7,30.33,NNW,338,0.0,0.0,94,0.00,,,0.00,VWS V14.01,2013-07-18 05:06:00,
2013-07-18 01:11:00,70.5,68.7,30.33,NNW,338,0.0,0.0,94,0.00,,,0.00,VWS V14.01,2013-07-18 05:11:00,
2013-07-18 01:16:00,70.5,68.7,30.30,South,180,0.0,0.0,94,0.00,,,0.00,VWS V14.01,2013-07-18 05:16:00,
2013-07-18 01:21:00,70.5,68.7,30.30,SSW,202,0.0,0.9,94,0.00,,,0.00,VWS V14.01,2013-07-18 05:21:00,
2013-07-18 01:26:00,70.5,68.7,30.30,South,180,0.0,0.0,94,0.00,,,0.00,VWS V14.01,2013-07-18 05:26:00,
2013-07-18 01:31:00,70.3,68.8,30.30,West,270,0.0,0.0,95,0.00,,,0.00,VWS V14.01,2013-07-18 05:31:00,
2013-07-18 01:42:00,70.3,68.8,30.30,NW,315,0.0,0.0,95,0.00,,,0.00,VWS V14.01,2013-07-18 05:42:00,
2013-07-18 01:47:00,70.2,68.7,30.27,NW,315,0.0,0.0,95,0.00,,,0.00,VWS V14.01,2013-07-18 05:47:00,
2013-07-18 01:52:00,70.0,68.5,30.27,NW,315,0.0,0.0,95,0.00,,,0.00,VWS V14.01,2013-07-18 05:52:00,
2013-07-18 01:57:00,70.0,68.2,30.27,SW,225,0.0,0.0,94,0.00,,,0.00,VWS V14.01,2013-07-18 05:57:00,
2013-07-18 02:02:00,70.0,68.2,30.27,SW,225,0.0,0.0,94,0.00,,,0.00,VWS V14.01,2013-07-18 06:02:00,
2013-07-18 02:07:00,69.6,68.1,30.27,SW,225,0.0,0.0,95,0.00,,,0.00,VWS V14.01,2013-07-18 06:07:00,
2013-07-18 02:12:00,69.6,67.8,30.27,South,180,0.0,0.0,94,0.00,,,0.00,VWS V14.01,2013-07-18 06:12:00,
2013-07-18 02:17:00,69.6,68.1,30.27,South,180,0.0,0.0,95,0.00,,,0.00,VWS V14.01,2013-07-18 06:17:00,
2013-07-18 02:22:00,69.6,68.1,30.27,South,180,0.0,0.0,95,0.00,,,0.00,VWS V14.01,2013-07-18 06:22:00,
2013-07-18 02:27:00,69.4,67.9,30.27,South,180,0.0,0.0,95,0.00,,,0.00,VWS V14.01,2013-07-18 06:27:00,
2013-07-18 02:32:00,69.4,67.9,30.27,South,180,0.0,0.0,95,0.00,,,0.00,VWS V14.01,2013-07-18 06:32:00,
2013-07-18 02:37:00,69.4,67.9,30.27,South,180,0.0,0.0,95,0.00,,,0.00,VWS V14.01,2013-07-18 06:37:00,
2013-07-18 02:42:00,69.4,67.9,30.27,South,180,0.0,0.0,95,0.00,,,0.00,VWS V14.01,2013-07-18 06:42:00,
2013-07-18 02:47:00,69.4,67.9,30.27,SW,225,0.0,0.0,95,0.00,,,0.00,VWS V14.01,2013-07-18 06:47:00,
2013-07-18 05:03:00,69.4,68.6,30.27,South,180,0.0,0.0,97,0.00,,,0.00,VWS V14.01,2013-07-18 09:03:00,
2013-07-18 05:08:00,69.4,68.6,30.27,South,180,0.0,0.0,97,0.00,,,0.00,VWS V14.01,2013-07-18 09:08:00,
2013-07-18 05:13:00,69.4,68.6,30.27,South,180,0.0,0.0,97,0.00,,,0.00,VWS V14.01,2013-07-18 09:13:00,
2013-07-18 05:18:00,69.6,68.7,30.27,SW,225,0.0,0.0,97,0.00,,,0.00,VWS V14.01,2013-07-18 09:18:00,
2013-07-18 05:23:00,69.6,68.7,30.27,SW,225,0.0,0.0,97,0.00,,,0.00,VWS V14.01,2013-07-18 09:23:00,
2013-07-18 05:28:00,69.8,68.9,30.27,South,180,0.0,0.0,97,0.00,,,0.00,VWS V14.01,2013-07-18 09:28:00,
2013-07-18 05:33:00,69.8,68.9,30.27,South,180,0.0,0.0,97,0.00,,,0.00,VWS V14.01,2013-07-18 09:33:00,
2013-07-18 05:38:00,69.8,68.9,30.27,South,180,0.0,0.0,97,0.00,,,0.00,VWS V14.01,2013-07-18 09:38:00,
2013-07-18 05:43:00,69.8,68.9,30.27,South,180,0.0,0.0,97,0.00,,,0.00,VWS V14.01,2013-07-18 09:43:00,
2013-07-18 05:48:00,69.8,68.9,30.27,South,180,0.0,0.0,97,0.00,,,0.00,VWS V14.01,2013-07-18 09:48:00,
2013-07-18 05:53:00,69.8,68.9,30.27,South,180,0.0,0.0,97,0.00,,,0.00,VWS V14.01,2013-07-18 09:53:00,
2013-07-18 05:58:00,69.8,68.9,30.27,South,180,0.0,0.0,97,0.00,,,0.00,VWS V14.01,2013-07-18 09:58:00,
2013-07-18 06:03:00,70.0,69.1,30.27,South,180,0.0,0.0,97,0.00,,,0.00,VWS V14.01,2013-07-18 10:03:00,
2013-07-18 06:08:00,70.0,69.1,30.27,SSW,202,0.0,0.0,97,0.00,,,0.00,VWS V14.01,2013-07-18 10:08:00,
2013-07-18 06:13:00,70.0,69.1,30.27,SSW,202,0.0,0.0,97,0.00,,,0.00,VWS V14.01,2013-07-18 10:13:00,
2013-07-18 06:18:00,70.0,69.1,30.27,SSW,202,0.0,1.3,97,0.00,,,0.00,VWS V14.01,2013-07-18 10:18:00,
2013-07-18 06:23:00,70.0,69.1,30.27,SSW,202,0.0,0.9,97,0.00,,,0.00,VWS V14.01,2013-07-18 10:23:00,
2013-07-18 06:28:00,70.0,69.1,30.27,SW,225,0.0,0.0,97,0.00,,,0.00,VWS V14.01,2013-07-18 10:28:00,
2013-07-18 06:33:00,70.0,69.1,30.27,SW,225,0.0,0.0,97,0.00,,,0.00,VWS V14.01,2013-07-18 10:33:00,
2013-07-18 06:38:00,70.0,69.1,30.27,SW,225,0.0,0.0,97,0.00,,,0.00,VWS V14.01,2013-07-18 10:38:00,
2013-07-18 06:43:00,70.2,69.3,30.24,SW,225,0.0,0.0,97,0.00,,,0.00,VWS V14.01,2013-07-18 10:43:00,
2013-07-18 06:48:00,70.2,69.3,30.24,SSW,202,0.0,0.0,97,0.00,,,0.00,VWS V14.01,2013-07-18 10:48:00,
2013-07-18 06:53:00,70.2,69.3,30.24,SW,225,0.0,0.0,97,0.00,,,0.00,VWS V14.01,2013-07-18 10:53:00,
2013-07-18 06:58:00,70.2,69.3,30.27,SW,225,0.0,0.0,97,0.00,,,0.00,VWS V14.01,2013-07-18 10:58:00,
2013-07-18 07:03:00,70.3,69.4,30.27,SW,225,0.0,0.0,97,0.00,,,0.00,VWS V14.01,2013-07-18 11:03:00,
2013-07-18 07:08:00,70.3,69.4,30.27,SSW,202,0.0,0.0,97,0.00,,,0.00,VWS V14.01,2013-07-18 11:08:00,
2013-07-18 07:13:00,70.3,69.4,30.27,SSW,202,0.0,0.0,97,0.00,,,0.00,VWS V14.01,2013-07-18 11:13:00,
2013-07-18 07:18:00,70.5,69.6,30.27,SSW,202,0.0,0.0,97,0.00,,,0.00,VWS V14.01,2013-07-18 11:18:00,
2013-07-18 07:23:00,70.5,69.6,30.27,South,180,0.0,0.0,97,0.00,,,0.00,VWS V14.01,2013-07-18 11:23:00,
2013-07-18 07:28:00,70.7,69.8,30.27,South,180,0.0,1.3,97,0.00,,,0.00,VWS V14.01,2013-07-18 11:28:00,
2013-07-18 07:33:00,70.9,70.3,30.27,SSW,202,0.0,0.0,98,0.00,,,0.00,VWS V14.01,2013-07-18 11:33:00,
2013-07-18 07:38:00,70.9,70.3,30.27,SW,225,0.0,0.0,98,0.00,,,0.00,VWS V14.01,2013-07-18 11:38:00,
2013-07-18 07:43:00,71.2,70.7,30.27,SW,225,0.0,0.0,98,0.00,,,0.00,VWS V14.01,2013-07-18 11:43:00,
2013-07-18 07:48:00,71.4,70.8,30.27,WNW,292,0.0,0.0,98,0.00,,,0.00,VWS V14.01,2013-07-18 11:48:00,
2013-07-18 07:53:00,71.6,70.7,30.27,South,180,0.9,0.9,97,0.00,,,0.00,VWS V14.01,2013-07-18 11:53:00,
2013-07-18 07:58:00,71.6,70.7,30.27,South,180,0.0,0.0,97,0.00,,,0.00,VWS V14.01,2013-07-18 11:58:00,
2013-07-18 08:03:00,71.8,70.9,30.27,SW,225,0.0,2.0,97,0.00,,,0.00,VWS V14.01,2013-07-18 12:03:00,
2013-07-18 08:08:00,72.0,71.1,30.27,SW,225,0.0,0.0,97,0.00,,,0.00,VWS V14.01,2013-07-18 12:08:00,
2013-07-18 08:13:00,72.3,71.4,30.27,SW,225,0.0,0.0,97,0.00,,,0.00,VWS V14.01,2013-07-18 12:13:00,
2013-07-18 08:18:00,72.5,71.6,30.27,WSW,248,0.0,0.0,97,0.00,,,0.00,VWS V14.01,2013-07-18 12:18:00,
2013-07-18 08:23:00,72.7,71.8,30.27,SW,225,0.0,0.0,97,0.00,,,0.00,VWS V14.01,2013-07-18 12:23:00,
2013-07-18 08:28:00,72.5,71.3,30.27,South,180,0.0,0.9,96,0.00,,,0.00,VWS V14.01,2013-07-18 12:28:00,
2013-07-18 08:33:00,72.7,71.5,30.27,South,180,0.0,1.1,96,0.00,,,0.00,VWS V14.01,2013-07-18 12:33:00,
2013-07-18 08:38:00,72.9,71.7,30.27,SE,135,1.3,1.3,96,0.00,,,0.00,VWS V14.01,2013-07-18 12:38:00,
2013-07-18 08:43:00,73.0,71.8,30.27,South,180,0.0,1.6,96,0.00,,,0.00,VWS V14.01,2013-07-18 12:43:00,
2013-07-18 08:48:00,73.2,72.0,30.27,South,180,0.0,0.0,96,0.00,,,0.00,VWS V14.01,2013-07-18 12:48:00,
2013-07-18 08:53:00,73.4,71.9,30.27,SW,225,0.0,0.0,95,0.00,,,0.00,VWS V14.01,2013-07-18 12:53:00,
2013-07-18 08:58:00,73.8,72.2,30.30,South,180,0.0,0.0,95,0.00,,,0.00,VWS V14.01,2013-07-18 12:58:00,
2013-07-18 09:03:00,73.8,71.9,30.30,SE,135,0.9,2.0,94,0.00,,,0.00,VWS V14.01,2013-07-18 13:03:00,
2013-07-18 09:08:00,73.9,72.1,30.30,East,90,0.0,1.3,94,0.00,,,0.00,VWS V14.01,2013-07-18 13:08:00,
2013-07-18 09:13:00,74.1,72.0,30.30,SE,135,1.3,2.7,93,0.00,,,0.00,VWS V14.01,2013-07-18 13:13:00,
2013-07-18 09:18:00,74.7,72.2,30.30,SE,135,1.3,1.6,92,0.00,,,0.00,VWS V14.01,2013-07-18 13:18:00,
2013-07-18 09:23:00,75.0,71.9,30.30,East,90,2.0,2.2,90,0.00,,,0.00,VWS V14.01,2013-07-18 13:23:00,
2013-07-18 09:28:00,75.2,71.4,30.27,South,180,1.6,2.2,88,0.00,,,0.00,VWS V14.01,2013-07-18 13:28:00,
2013-07-18 09:33:00,75.0,70.9,30.27,South,180,1.1,2.9,87,0.00,,,0.00,VWS V14.01,2013-07-18 13:33:00,
2013-07-18 09:38:00,75.4,70.9,30.27,SSE,158,2.2,2.5,86,0.00,,,0.00,VWS V14.01,2013-07-18 13:38:00,
2013-07-18 09:43:00,75.7,71.3,30.27,SSW,202,0.0,2.7,86,0.00,,,0.00,VWS V14.01,2013-07-18 13:43:00,
2013-07-18 09:48:00,76.1,71.3,30.27,SW,225,0.0,2.9,85,0.00,,,0.00,VWS V14.01,2013-07-18 13:48:00,
2013-07-18 09:53:00,76.6,71.4,30.27,SW,225,0.0,0.9,84,0.00,,,0.00,VWS V14.01,2013-07-18 13:53:00,
2013-07-18 09:58:00,77.2,71.6,30.27,SW,225,0.0,0.0,83,0.00,,,0.00,VWS V14.01,2013-07-18 13:58:00,
2013-07-18 10:03:00,77.4,71.1,30.27,SW,225,0.0,2.5,81,0.00,,,0.00,VWS V14.01,2013-07-18 14:03:00,
2013-07-18 10:08:00,78.3,71.6,30.27,SSW,202,0.0,1.6,80,0.00,,,0.00,VWS V14.01,2013-07-18 14:08:00,
2013-07-18 10:13:00,78.8,71.4,30.27,South,180,2.0,2.0,78,0.00,,,0.00,VWS V14.01,2013-07-18 14:13:00,
2013-07-18 10:18:00,79.3,70.3,30.27,South,180,1.6,2.2,74,0.00,,,0.00,VWS V14.01,2013-07-18 14:18:00,
2013-07-18 10:23:00,80.8,70.9,30.27,WNW,292,2.0,3.4,72,0.00,,,0.00,VWS V14.01,2013-07-18 14:23:00,
2013-07-18 10:28:00,84.0,73.2,30.27,SW,225,0.0,2.2,70,0.00,,,0.00,VWS V14.01,2013-07-18 14:28:00,
2013-07-18 10:33:00,84.0,71.0,30.27,South,180,2.0,2.5,65,0.00,,,0.00,VWS V14.01,2013-07-18 14:33:00,
2013-07-18 10:38:00,83.1,69.7,30.27,South,180,1.1,2.7,64,0.00,,,0.00,VWS V14.01,2013-07-18 14:38:00,
2013-07-18 10:43:00,86.4,72.8,30.27,North,0,0.0,2.2,64,0.00,,,0.00,VWS V14.01,2013-07-18 14:43:00,
2013-07-18 10:48:00,87.1,71.0,30.27,SW,225,2.2,2.7,59,0.00,,,0.00,VWS V14.01,2013-07-18 14:48:00,
2013-07-18 10:53:00,88.2,71.5,30.27,NW,315,0.0,2.5,58,0.00,,,0.00,VWS V14.01,2013-07-18 14:53:00,
2013-07-18 10:58:00,87.3,69.1,30.27,ENE,68,0.0,2.5,55,0.00,,,0.00,VWS V14.01,2013-07-18 14:58:00,
2013-07-18 11:03:00,86.2,68.1,30.27,SW,225,0.0,2.0,55,0.00,,,0.00,VWS V14.01,2013-07-18 15:03:00,
2013-07-18 11:08:00,86.9,68.3,30.27,SSW,202,3.1,3.6,54,0.00,,,0.00,VWS V14.01,2013-07-18 15:08:00,
2013-07-18 11:13:00,90.7,71.2,30.27,South,180,2.5,2.5,53,0.00,,,0.00,VWS V14.01,2013-07-18 15:13:00,
2013-07-18 11:18:00,90.1,70.7,30.27,NNW,338,2.0,2.5,53,0.00,,,0.00,VWS V14.01,2013-07-18 15:18:00,
2013-07-18 11:23:00,90.1,69.0,30.27,SW,225,0.0,2.5,50,0.00,,,0.00,VWS V14.01,2013-07-18 15:23:00,
2013-07-18 11:28:00,90.0,67.7,30.27,SW,225,1.1,2.9,48,0.00,,,0.00,VWS V14.01,2013-07-18 15:28:00,
2013-07-18 11:33:00,91.9,70.1,30.27,NNW,338,0.0,2.7,49,0.00,,,0.00,VWS V14.01,2013-07-18 15:33:00,
2013-07-18 11:38:00,91.4,68.3,30.27,NNE,22,0.0,0.0,47,0.00,,,0.00,VWS V14.01,2013-07-18 15:38:00,
2013-07-18 11:43:00,95.4,70.7,30.24,East,90,0.0,1.3,45,0.00,,,0.00,VWS V14.01,2013-07-18 15:43:00,
2013-07-18 11:48:00,92.5,67.4,30.24,South,180,2.0,2.5,44,0.00,,,0.00,VWS V14.01,2013-07-18 15:48:00,
2013-07-18 11:53:00,90.9,67.2,30.24,South,180,0.9,2.7,46,0.00,,,0.00,VWS V14.01,2013-07-18 15:53:00,
2013-07-18 11:58:00,89.4,66.6,30.24,SE,135,0.0,2.5,47,0.00,,,0.00,VWS V14.01,2013-07-18 15:58:00,
2013-07-18 12:03:00,88.5,66.3,30.24,SE,135,1.6,2.5,48,0.00,,,0.00,VWS V14.01,2013-07-18 16:03:00,
2013-07-18 12:08:00,89.6,67.3,30.24,East,90,0.0,2.0,48,0.00,,,0.00,VWS V14.01,2013-07-18 16:08:00,
2013-07-18 12:13:00,90.9,67.9,30.24,WSW,248,0.0,2.9,47,0.00,,,0.00,VWS V14.01,2013-07-18 16:13:00,
2013-07-18 12:18:00,95.7,70.3,30.24,NE,45,2.2,2.2,44,0.00,,,0.00,VWS V14.01,2013-07-18 16:18:00,
2013-07-18 12:23:00,96.3,69.5,30.24,SSW,202,0.0,3.6,42,0.00,,,36.38,VWS V14.01,2013-07-18 16:23:00,
2013-07-18 12:28:00,95.9,67.7,30.27,NE,45,0.0,4.3,40,0.00,,,36.38,VWS V14.01,2013-07-18 16:28:00,
2013-07-18 12:33:00,94.8,66.8,30.27,ESE,112,0.9,3.8,40,0.00,,,36.38,VWS V14.01,2013-07-18 16:33:00,
2013-07-18 12:38:00,96.4,68.2,30.27,NNW,338,1.1,2.2,40,0.00,,,36.38,VWS V14.01,2013-07-18 16:38:00,
2013-07-18 12:43:00,96.4,68.2,30.27,SW,225,1.3,1.6,40,0.00,,,36.38,VWS V14.01,2013-07-18 16:43:00,
2013-07-18 12:48:00,95.5,66.7,30.27,SE,135,1.6,3.6,39,0.00,,,36.38,VWS V14.01,2013-07-18 16:48:00,
2013-07-18 12:53:00,99.0,68.2,30.27,SW,225,2.0,2.7,37,0.00,,,36.38,VWS V14.01,2013-07-18 16:53:00,
2013-07-18 12:58:00,98.1,66.6,30.27,South,180,3.6,3.6,36,0.00,,,36.38,VWS V14.01,2013-07-18 16:58:00,
2013-07-18 13:03:00,99.7,67.2,30.27,WSW,248,2.5,2.9,35,0.00,,,36.38,VWS V14.01,2013-07-18 17:03:00,
2013-07-18 13:08:00,101.8,67.3,30.27,North,0,2.0,3.1,33,0.00,,,36.38,VWS V14.01,2013-07-18 17:08:00,
2013-07-18 13:13:00,105.3,69.4,30.27,WNW,292,1.6,2.9,32,0.00,,,36.38,VWS V14.01,2013-07-18 17:13:00,
2013-07-18 13:18:00,105.4,65.7,30.27,South,180,1.3,2.2,28,0.00,,,36.38,VWS V14.01,2013-07-18 17:18:00,
2013-07-18 13:23:00,105.3,65.6,30.27,South,180,3.1,4.0,28,0.00,,,36.38,VWS V14.01,2013-07-18 17:23:00,
2013-07-18 13:28:00,105.3,65.6,30.27,NNW,338,0.0,3.4,28,0.00,,,36.38,VWS V14.01,2013-07-18 17:28:00,
2013-07-18 13:33:00,108.7,66.3,30.27,SW,225,0.9,2.0,26,0.00,,,36.38,VWS V14.01,2013-07-18 17:33:00,
2013-07-18 13:38:00,108.5,63.8,30.27,North,0,2.0,2.0,24,0.00,,,36.38,VWS V14.01,2013-07-18 17:38:00,
2013-07-18 13:43:00,105.3,62.3,30.24,SSE,158,0.0,2.7,25,0.00,,,36.38,VWS V14.01,2013-07-18 17:43:00,
2013-07-18 13:48:00,101.8,61.6,30.24,South,180,1.1,2.7,27,0.00,,,36.38,VWS V14.01,2013-07-18 17:48:00,
2013-07-18 13:53:00,99.3,60.5,30.24,SSW,202,1.1,2.9,28,0.00,,,36.38,VWS V14.01,2013-07-18 17:53:00,
2013-07-18 13:58:00,99.5,62.6,30.27,SSE,158,2.0,2.9,30,0.00,,,36.38,VWS V14.01,2013-07-18 17:58:00,
2013-07-18 14:03:00,99.5,61.6,30.27,ESE,112,1.3,3.6,29,0.00,,SCT033,36.38,VWS V14.01,2013-07-18 18:03:00,
2013-07-18 14:08:00,99.5,62.6,30.27,South,180,3.8,5.6,30,0.00,,SCT033,36.38,VWS V14.01,2013-07-18 18:08:00,
2013-07-18 14:13:00,98.4,63.5,30.24,SE,135,0.0,4.9,32,0.00,,SCT033,36.38,VWS V14.01,2013-07-18 18:13:00,
2013-07-18 14:18:00,102.4,64.1,30.24,East,90,2.0,2.5,29,0.00,,SCT033,36.38,VWS V14.01,2013-07-18 18:18:00,
2013-07-18 14:23:00,101.5,62.3,30.24,East,90,2.7,4.3,28,0.00,,SCT033,36.38,VWS V14.01,2013-07-18 18:23:00,
2013-07-18 14:28:00,99.1,62.3,30.24,SSE,158,0.0,2.7,30,0.00,,SCT033,36.38,VWS V14.01,2013-07-18 18:28:00,
2013-07-18 14:33:00,97.0,61.4,30.24,South,180,1.1,2.5,31,0.00,,SCT033,36.38,VWS V14.01,2013-07-18 18:33:00,
2013-07-18 14:38:00,96.6,63.7,30.24,South,180,0.9,1.6,34,0.00,,SCT033,36.38,VWS V14.01,2013-07-18 18:38:00,
2013-07-18 14:43:00,97.5,65.3,30.24,East,90,0.0,1.6,35,0.00,,SCT033,36.38,VWS V14.01,2013-07-18 18:43:00,
2013-07-18 14:48:00,100.6,68.0,30.24,NE,45,1.6,2.5,35,0.00,,SCT033,36.38,VWS V14.01,2013-07-18 18:48:00,
2013-07-18 14:53:00,103.5,66.0,30.24,North,0,2.0,3.6,30,0.00,,SCT033,36.38,VWS V14.01,2013-07-18 18:53:00,
2013-07-18 14:58:00,103.5,65.0,30.21,SW,225,2.7,2.7,29,0.00,,SCT033,36.38,VWS V14.01,2013-07-18 18:58:00,
2013-07-18 15:03:00,103.5,64.0,30.21,South,180,1.1,4.3,28,0.00,,SCT075,36.38,VWS V14.01,2013-07-18 19:03:00,
2013-07-18 15:08:00,106.0,65.1,30.21,SSW,202,1.3,2.2,27,0.00,,SCT075,36.38,VWS V14.01,2013-07-18 19:08:00,
2013-07-18 15:13:00,106.2,65.3,30.21,NNW,338,1.6,3.6,27,0.00,,SCT075,36.38,VWS V14.01,2013-07-18 19:13:00,
2013-07-18 15:18:00,102.2,60.8,30.21,WSW,248,0.0,2.7,26,0.00,,SCT075,36.38,VWS V14.01,2013-07-18 19:18:00,
2013-07-18 15:23:00,103.1,62.7,30.21,SW,225,1.6,2.2,27,0.00,,SCT075,36.38,VWS V14.01,2013-07-18 19:23:00,
2013-07-18 15:28:00,102.7,63.4,30.21,SW,225,0.0,2.5,28,0.00,,SCT075,36.38,VWS V14.01,2013-07-18 19:28:00,
2013-07-18 15:33:00,105.4,63.6,30.21,West,270,2.5,2.5,26,0.00,,SCT075,36.38,VWS V14.01,2013-07-18 19:33:00,
2013-07-18 15:38:00,101.5,61.3,30.21,West,270,2.9,4.9,27,0.00,,SCT075,36.38,VWS V14.01,2013-07-18 19:38:00,
2013-07-18 15:43:00,99.3,61.5,30.21,ESE,112,1.1,3.6,29,0.00,,SCT075,36.38,VWS V14.01,2013-07-18 19:43:00,
2013-07-18 15:48:00,98.6,61.8,30.21,SW,225,0.9,2.2,30,0.00,,SCT075,36.38,VWS V14.01,2013-07-18 19:48:00,
2013-07-18 15:53:00,99.0,63.1,30.21,NE,45,1.3,1.3,31,0.00,,SCT075,36.38,VWS V14.01,2013-07-18 19:53:00,
2013-07-18 15:58:00,102.0,65.7,30.21,NW,315,0.9,3.1,31,0.00,,SCT075,36.38,VWS V14.01,2013-07-18 19:58:00,
2013-07-18 16:03:00,103.5,65.0,30.21,NW,315,0.0,3.4,29,0.00,,CLR,36.38,VWS V14.01,2013-07-18 20:03:00,
2013-07-18 16:08:00,104.9,64.2,30.21,SE,135,0.9,3.8,27,0.00,,CLR,36.38,VWS V14.01,2013-07-18 20:08:00,
2013-07-18 16:13:00,104.0,63.4,30.21,NW,315,2.0,2.5,27,0.00,,CLR,36.38,VWS V14.01,2013-07-18 20:13:00,
2013-07-18 16:18:00,104.9,62.0,30.21,NE,45,3.4,4.0,25,0.00,,CLR,36.38,VWS V14.01,2013-07-18 20:18:00,
2013-07-18 16:23:00,103.5,61.9,30.21,NNW,338,0.0,2.5,26,0.00,,CLR,36.38,VWS V14.01,2013-07-18 20:23:00,
2013-07-18 16:28:00,101.8,61.6,30.21,NNW,338,1.3,2.5,27,0.00,,CLR,36.38,VWS V14.01,2013-07-18 20:28:00,
2013-07-18 16:33:00,99.9,63.8,30.21,NNW,338,1.3,1.3,31,0.00,,CLR,36.38,VWS V14.01,2013-07-18 20:33:00,
2013-07-18 16:38:00,97.9,62.1,30.21,NW,315,1.3,4.3,31,0.00,,CLR,36.38,VWS V14.01,2013-07-18 20:38:00,
2013-07-18 16:43:00,97.5,64.4,30.18,NW,315,0.0,2.5,34,0.00,,CLR,36.38,VWS V14.01,2013-07-18 20:43:00,
2013-07-18 16:48:00,99.0,67.4,30.18,South,180,0.0,2.2,36,0.00,,CLR,36.38,VWS V14.01,2013-07-18 20:48:00,
2013-07-18 16:53:00,98.1,66.6,30.18,SW,225,3.1,6.3,36,0.00,,CLR,36.38,VWS V14.01,2013-07-18 20:53:00,
2013-07-18 16:58:00,96.1,65.6,30.21,WNW,292,2.9,4.9,37,0.00,,CLR,36.38,VWS V14.01,2013-07-18 20:58:00,
2013-07-18 17:03:00,96.1,65.6,30.21,NNW,338,1.6,5.6,37,0.00,,CLR,36.38,VWS V14.01,2013-07-18 21:03:00,
2013-07-18 17:08:00,95.0,65.4,30.21,NNW,338,0.0,3.4,38,0.00,,CLR,36.38,VWS V14.01,2013-07-18 21:08:00,
2013-07-18 17:13:00,96.8,66.2,30.18,NW,315,2.2,4.9,37,0.00,,CLR,36.38,VWS V14.01,2013-07-18 21:13:00,
2013-07-18 17:18:00,94.8,65.3,30.18,WNW,292,2.2,5.4,38,0.00,,CLR,36.38,VWS V14.01,2013-07-18 21:18:00,
2013-07-18 17:23:00,94.5,65.7,30.18,West,270,3.8,4.9,39,0.00,,CLR,36.38,VWS V14.01,2013-07-18 21:23:00,
2013-07-18 17:28:00,91.2,62.8,30.18,North,0,2.5,8.7,39,0.00,,CLR,36.38,VWS V14.01,2013-07-18 21:28:00,
2013-07-18 17:33:00,90.0,63.1,30.18,WSW,248,1.6,5.4,41,0.00,,CLR,36.38,VWS V14.01,2013-07-18 21:33:00,
2013-07-18 17:38:00,88.5,64.5,30.18,ESE,112,2.5,3.1,45,0.00,,CLR,36.38,VWS V14.01,2013-07-18 21:38:00,
2013-07-18 17:43:00,88.3,64.9,30.18,ENE,68,0.0,1.1,46,0.00,,CLR,36.38,VWS V14.01,2013-07-18 21:43:00,
2013-07-18 17:48:00,87.3,65.8,30.18,SSE,158,1.1,2.5,49,0.00,,CLR,36.38,VWS V14.01,2013-07-18 21:48:00,
2013-07-18 17:53:00,86.4,65.5,30.18,South,180,1.3,3.1,50,0.00,,CLR,36.38,VWS V14.01,2013-07-18 21:53:00,
2013-07-18 17:58:00,86.2,65.4,30.21,SSE,158,0.9,2.0,50,0.00,,CLR,36.38,VWS V14.01,2013-07-18 21:58:00,
2013-07-18 18:03:00,85.8,65.6,30.21,NNE,22,1.3,1.3,51,0.00,,CLR,36.38,VWS V14.01,2013-07-18 22:03:00,
2013-07-18 18:08:00,85.5,66.9,30.21,NE,45,0.0,1.3,54,0.00,,CLR,36.38,VWS V14.01,2013-07-18 22:08:00,
2013-07-18 18:13:00,85.1,67.1,30.18,NE,45,0.0,0.0,55,0.00,,CLR,36.38,VWS V14.01,2013-07-18 22:13:00,
2013-07-18 18:18:00,84.7,67.3,30.18,ESE,112,0.0,0.0,56,0.00,,CLR,36.38,VWS V14.01,2013-07-18 22:18:00,
2013-07-18 18:23:00,84.4,67.0,30.18,South,180,0.0,1.1,56,0.00,,CLR,36.38,VWS V14.01,2013-07-18 22:23:00,
2013-07-18 18:28:00,84.4,68.0,30.18,East,90,0.0,0.0,58,0.00,,CLR,36.38,VWS V14.01,2013-07-18 22:28:00,
2013-07-18 18:33:00,84.4,68.5,30.18,East,90,0.0,1.6,59,0.00,,CLR,36.38,VWS V14.01,2013-07-18 22:33:00,
2013-07-18 18:38:00,85.3,69.8,30.18,NNW,338,1.1,1.6,60,0.00,,CLR,36.38,VWS V14.01,2013-07-18 22:38:00,
2013-07-18 18:43:00,86.7,70.2,30.18,NNW,338,0.0,1.3,58,0.00,,CLR,36.38,VWS V14.01,2013-07-18 22:43:00,
2013-07-18 18:48:00,86.9,70.9,30.18,East,90,2.9,3.4,59,0.00,,CLR,36.38,VWS V14.01,2013-07-18 22:48:00,
2013-07-18 18:53:00,86.5,70.0,30.18,South,180,1.6,2.9,58,0.00,,CLR,36.38,VWS V14.01,2013-07-18 22:53:00,
2013-07-18 18:58:00,87.1,70.5,30.18,East,90,1.6,3.1,58,0.00,,CLR,36.38,VWS V14.01,2013-07-18 22:58:00,
2013-07-18 19:03:00,87.3,70.2,30.18,ESE,112,2.0,2.9,57,0.00,,CLR,36.38,VWS V14.01,2013-07-18 23:03:00,
2013-07-18 19:08:00,87.1,69.5,30.18,SSE,158,2.2,3.8,56,0.00,,CLR,0.00,VWS V14.01,2013-07-18 23:08:00,
2013-07-18 19:13:00,86.7,69.7,30.18,East,90,1.3,4.0,57,0.00,,CLR,36.38,VWS V14.01,2013-07-18 23:13:00,
2013-07-18 19:18:00,86.4,68.8,30.18,SE,135,4.3,4.7,56,0.00,,CLR,36.38,VWS V14.01,2013-07-18 23:18:00,
2013-07-18 19:23:00,85.1,68.2,30.18,SE,135,3.6,5.4,57,0.00,,CLR,36.38,VWS V14.01,2013-07-18 23:23:00,
2013-07-18 19:28:00,84.7,68.8,30.21,South,180,2.5,3.8,59,0.00,,CLR,36.38,VWS V14.01,2013-07-18 23:28:00,
2013-07-18 19:33:00,84.0,67.7,30.21,East,90,2.7,4.9,58,0.00,,CLR,36.38,VWS V14.01,2013-07-18 23:33:00,
2013-07-18 19:38:00,83.1,66.8,30.21,East,90,0.9,5.4,58,0.00,,CLR,36.38,VWS V14.01,2013-07-18 23:38:00,
2013-07-18 19:43:00,83.1,66.8,30.18,SE,135,2.0,3.6,58,0.00,,CLR,36.38,VWS V14.01,2013-07-18 23:43:00,
2013-07-18 19:48:00,82.9,67.6,30.18,SSE,158,0.9,3.1,60,0.00,,CLR,36.38,VWS V14.01,2013-07-18 23:48:00,
2013-07-18 19:53:00,82.4,67.6,30.18,SSE,158,2.0,2.5,61,0.00,,CLR,36.38,VWS V14.01,2013-07-18 23:53:00,
2013-07-18 19:58:00,81.7,67.4,30.18,South,180,0.0,3.6,62,0.00,,CLR,36.38,VWS V14.01,2013-07-18 23:58:00,
2013-07-18 20:03:00,81.3,68.0,30.18,SE,135,2.7,3.4,64,0.00,,,36.38,VWS V14.01,2013-07-19 00:03:00,
2013-07-18 20:08:00,80.8,67.5,30.18,South,180,1.6,3.1,64,0.00,,,36.38,VWS V14.01,2013-07-19 00:08:00,
2013-07-18 20:13:00,80.1,67.7,30.18,SSE,158,3.1,3.8,66,0.00,,,36.38,VWS V14.01,2013-07-19 00:13:00,
2013-07-18 20:18:00,79.5,67.2,30.18,East,90,0.9,2.7,66,0.00,,,36.38,VWS V14.01,2013-07-19 00:18:00,
2013-07-18 20:23:00,79.3,67.4,30.18,NNE,22,0.0,0.0,67,0.00,,,36.38,VWS V14.01,2013-07-19 00:23:00,
2013-07-18 20:28:00,79.0,67.5,30.18,East,90,0.0,0.9,68,0.00,,,36.38,VWS V14.01,2013-07-19 00:28:00,
2013-07-18 20:33:00,78.4,67.4,30.18,East,90,0.0,1.6,69,0.00,,CLR,36.38,VWS V14.01,2013-07-19 00:33:00,
2013-07-18 20:38:00,77.5,67.0,30.18,East,90,1.3,1.3,70,0.00,,CLR,36.38,VWS V14.01,2013-07-19 00:38:00,
2013-07-18 20:43:00,77.0,67.7,30.18,East,90,0.0,0.9,73,0.00,,CLR,36.38,VWS V14.01,2013-07-19 00:43:00,
2013-07-18 20:48:00,76.6,67.7,30.18,ENE,68,0.0,0.0,74,0.00,,CLR,36.38,VWS V14.01,2013-07-19 00:48:00,
2013-07-18 20:53:00,76.1,67.6,30.18,ESE,112,1.1,1.3,75,0.00,,CLR,36.38,VWS V14.01,2013-07-19 00:53:00,
2013-07-18 20:58:00,75.7,68.0,30.21,ESE,112,0.0,1.3,77,0.00,,CLR,36.38,VWS V14.01,2013-07-19 00:58:00,
2013-07-18 21:03:00,75.2,67.5,30.21,ESE,112,0.0,0.9,77,0.00,,CLR,36.38,VWS V14.01,2013-07-19 01:03:00,
2013-07-18 21:08:00,74.8,67.5,30.21,ESE,112,0.0,0.0,78,0.00,,CLR,36.38,VWS V14.01,2013-07-19 01:08:00,
2013-07-18 21:13:00,74.5,67.2,30.21,ESE,112,0.0,0.0,78,0.00,,CLR,36.38,VWS V14.01,2013-07-19 01:13:00,
2013-07-18 21:18:00,74.1,67.2,30.21,ESE,112,0.0,0.0,79,0.00,,CLR,36.38,VWS V14.01,2013-07-19 01:18:00,
2013-07-18 21:23:00,73.9,68.1,30.21,ESE,112,0.0,2.0,82,0.00,,CLR,36.38,VWS V14.01,2013-07-19 01:23:00,
2013-07-18 21:28:00,73.6,67.8,30.21,ESE,112,1.1,1.1,82,0.00,,CLR,36.38,VWS V14.01,2013-07-19 01:28:00,
2013-07-18 21:33:00,73.4,68.3,30.21,ESE,112,0.0,1.1,84,0.00,,CLR,36.38,VWS V14.01,2013-07-19 01:33:00,
2013-07-18 21:38:00,73.2,68.1,30.21,ESE,112,0.0,0.0,84,0.00,,CLR,36.38,VWS V14.01,2013-07-19 01:38:00,
2013-07-18 21:43:00,73.0,68.9,30.21,ESE,112,1.6,1.6,87,0.00,,CLR,36.38,VWS V14.01,2013-07-19 01:43:00,
2013-07-18 21:48:00,72.9,68.4,30.21,ESE,112,0.0,1.3,86,0.00,,CLR,36.38,VWS V14.01,2013-07-19 01:48:00,
2013-07-18 21:53:00,72.7,68.3,30.21,SE,135,2.0,2.0,86,0.00,,CLR,36.38,VWS V14.01,2013-07-19 01:53:00,
2013-07-18 21:58:00,72.3,68.6,30.21,SE,135,0.0,1.3,88,0.00,,CLR,36.38,VWS V14.01,2013-07-19 01:58:00,
2013-07-18 22:03:00,72.0,68.2,30.21,SE,135,0.0,0.0,88,0.00,,CLR,36.38,VWS V14.01,2013-07-19 02:03:00,
2013-07-18 22:08:00,71.8,68.4,30.21,SE,135,0.0,0.0,89,0.00,,CLR,36.38,VWS V14.01,2013-07-19 02:08:00,
2013-07-18 22:13:00,71.6,68.2,30.21,SE,135,0.0,0.0,89,0.00,,CLR,36.38,VWS V14.01,2013-07-19 02:13:00,
2013-07-18 22:18:00,71.6,67.9,30.24,SE,135,0.0,0.0,88,0.00,,CLR,36.38,VWS V14.01,2013-07-19 02:18:00,
2013-07-18 22:23:00,71.6,68.5,30.24,SE,135,0.0,1.3,90,0.00,,CLR,36.38,VWS V14.01,2013-07-19 02:23:00,
2013-07-18 22:28:00,71.4,68.0,30.24,SE,135,1.3,1.3,89,0.00,,CLR,36.38,VWS V14.01,2013-07-19 02:28:00,
2013-07-18 22:33:00,71.2,68.2,30.21,SE,135,0.0,0.9,90,0.00,,CLR,36.38,VWS V14.01,2013-07-19 02:33:00,
2013-07-18 22:38:00,71.2,68.2,30.21,SE,135,0.0,0.0,90,0.00,,CLR,36.38,VWS V14.01,2013-07-19 02:38:00,
2013-07-18 22:43:00,71.2,68.5,30.21,SE,135,0.0,0.0,91,0.00,,CLR,36.38,VWS V14.01,2013-07-19 02:43:00,
2013-07-18 22:48:00,71.1,68.9,30.21,SE,135,0.0,1.1,93,0.00,,CLR,36.38,VWS V14.01,2013-07-19 02:48:00,
2013-07-18 22:53:00,70.7,68.3,30.21,SE,135,0.0,0.0,92,0.00,,CLR,36.38,VWS V14.01,2013-07-19 02:53:00,
2013-07-18 22:58:00,70.9,68.8,30.21,NNE,22,0.0,0.0,93,0.00,,CLR,36.38,VWS V14.01,2013-07-19 02:58:00,
2013-07-18 23:03:00,70.7,68.3,30.21,North,0,0.0,0.0,92,0.00,,,36.38,VWS V14.01,2013-07-19 03:03:00,
2013-07-18 23:08:00,70.5,68.4,30.21,East,90,0.9,1.1,93,0.00,,,36.38,VWS V14.01,2013-07-19 03:08:00,
2013-07-18 23:13:00,70.9,68.4,30.21,ESE,112,1.6,1.6,92,0.00,,,36.38,VWS V14.01,2013-07-19 03:13:00,
2013-07-18 23:18:00,70.7,68.9,30.21,ESE,112,0.9,2.2,94,0.00,,,36.38,VWS V14.01,2013-07-19 03:18:00,
2013-07-18 23:23:00,70.5,69.0,30.21,ESE,112,2.0,2.5,95,0.00,,,36.38,VWS V14.01,2013-07-19 03:23:00,
2013-07-18 23:28:00,70.5,69.0,30.21,SE,135,1.6,2.5,95,0.00,,,36.38,VWS V14.01,2013-07-19 03:28:00,
2013-07-18 23:33:00,70.3,69.2,30.21,SE,135,0.9,2.0,96,0.00,,,36.38,VWS V14.01,2013-07-19 03:33:00,
2013-07-18 23:38:00,70.2,69.0,30.21,SE,135,0.0,1.3,96,0.00,,,36.38,VWS V14.01,2013-07-19 03:38:00,
2013-07-18 23:43:00,70.0,68.5,30.21,SE,135,0.0,0.0,95,0.00,,,36.38,VWS V14.01,2013-07-19 03:43:00,
2013-07-18 23:48:00,69.8,68.3,30.21,SE,135,0.0,0.0,95,0.00,,,36.38,VWS V14.01,2013-07-19 03:48:00,
2013-07-18 23:53:00,69.8,68.3,30.21,SE,135,0.0,0.0,95,0.00,,,36.38,VWS V14.01,2013-07-19 03:53:00,
2013-07-18 23:58:00,69.6,68.1,30.21,SE,135,0.0,0.0,95,0.00,,,36.38,VWS V14.01,2013-07-19 03:58:00,